sensor_id;sensor_type;location;lat;lon;timestamp;P1;durP1;ratioP1;P2;durP2;ratioP2
2860;SDS011;1438;50.922;6.704;2023-07-28T00:00:29;4.03;;;1.60;;
2860;SDS011;1438;50.922;6.704;2023-07-28T00:02:54;3.80;;;1.60;;
2860;SDS011;1438;50.922;6.704;2023-07-28T00:05:20;1.63;;;1.43;;
2860;SDS011;1438;50.922;6.704;2023-07-28T00:07:46;1.70;;;1.60;;
2860;SDS011;1438;50.922;6.704;2023-07-28T00:10:11;2.13;;;1.80;;
2860;SDS011;1438;50.922;6.704;2023-07-28T00:12:37;1.87;;;1.53;;
2860;SDS011;1438;50.922;6.704;2023-07-28T00:15:03;2.47;;;1.73;;
2860;SDS011;1438;50.922;6.704;2023-07-28T00:17:29;1.50;;;1.23;;
2860;SDS011;1438;50.922;6.704;2023-07-28T00:19:54;5.63;;;1.50;;
2860;SDS011;1438;50.922;6.704;2023-07-28T00:22:20;3.60;;;1.63;;
2860;SDS011;1438;50.922;6.704;2023-07-28T00:24:46;4.93;;;1.63;;
2860;SDS011;1438;50.922;6.704;2023-07-28T00:27:13;1.47;;;1.37;;
2860;SDS011;1438;50.922;6.704;2023-07-28T00:29:40;2.97;;;1.20;;
2860;SDS011;1438;50.922;6.704;2023-07-28T00:32:06;2.70;;;1.53;;
2860;SDS011;1438;50.922;6.704;2023-07-28T00:34:32;1.33;;;1.13;;
2860;SDS011;1438;50.922;6.704;2023-07-28T00:36:58;1.20;;;1.03;;
2860;SDS011;1438;50.922;6.704;2023-07-28T00:39:23;2.10;;;1.20;;
2860;SDS011;1438;50.922;6.704;2023-07-28T00:41:49;2.37;;;1.20;;
2860;SDS011;1438;50.922;6.704;2023-07-28T00:44:14;1.33;;;1.23;;
2860;SDS011;1438;50.922;6.704;2023-07-28T00:46:41;1.47;;;1.13;;
2860;SDS011;1438;50.922;6.704;2023-07-28T00:49:08;1.50;;;1.30;;
2860;SDS011;1438;50.922;6.704;2023-07-28T00:51:34;2.33;;;1.10;;
2860;SDS011;1438;50.922;6.704;2023-07-28T00:54:02;1.23;;;1.13;;
2860;SDS011;1438;50.922;6.704;2023-07-28T00:56:30;1.57;;;1.33;;
2860;SDS011;1438;50.922;6.704;2023-07-28T00:58:56;1.90;;;1.20;;
2860;SDS011;1438;50.922;6.704;2023-07-28T01:01:25;1.50;;;1.40;;
2860;SDS011;1438;50.922;6.704;2023-07-28T01:03:50;1.20;;;1.10;;
2860;SDS011;1438;50.922;6.704;2023-07-28T01:09:08;4.23;;;1.37;;
2860;SDS011;1438;50.922;6.704;2023-07-28T01:11:52;1.37;;;1.23;;
2860;SDS011;1438;50.922;6.704;2023-07-28T01:14:24;1.80;;;1.70;;
2860;SDS011;1438;50.922;6.704;2023-07-28T01:16:50;3.10;;;1.50;;
2860;SDS011;1438;50.922;6.704;2023-07-28T01:19:16;1.00;;;0.90;;
2860;SDS011;1438;50.922;6.704;2023-07-28T01:21:45;1.47;;;1.17;;
2860;SDS011;1438;50.922;6.704;2023-07-28T01:27:06;2.23;;;1.67;;
2860;SDS011;1438;50.922;6.704;2023-07-28T01:29:33;1.93;;;1.43;;
2860;SDS011;1438;50.922;6.704;2023-07-28T01:32:00;1.93;;;1.20;;
2860;SDS011;1438;50.922;6.704;2023-07-28T01:34:26;1.40;;;1.30;;
2860;SDS011;1438;50.922;6.704;2023-07-28T01:36:51;1.50;;;1.40;;
2860;SDS011;1438;50.922;6.704;2023-07-28T01:39:17;3.37;;;1.60;;
2860;SDS011;1438;50.922;6.704;2023-07-28T01:41:42;1.93;;;1.80;;
2860;SDS011;1438;50.922;6.704;2023-07-28T01:44:08;4.17;;;2.23;;
2860;SDS011;1438;50.922;6.704;2023-07-28T01:46:34;2.10;;;1.90;;
2860;SDS011;1438;50.922;6.704;2023-07-28T01:49:00;1.60;;;1.50;;
2860;SDS011;1438;50.922;6.704;2023-07-28T01:51:25;2.13;;;1.60;;
2860;SDS011;1438;50.922;6.704;2023-07-28T01:53:51;2.40;;;1.93;;
2860;SDS011;1438;50.922;6.704;2023-07-28T01:56:17;2.00;;;1.90;;
2860;SDS011;1438;50.922;6.704;2023-07-28T01:58:42;3.20;;;1.70;;
2860;SDS011;1438;50.922;6.704;2023-07-28T02:01:08;10.60;;;1.90;;
2860;SDS011;1438;50.922;6.704;2023-07-28T02:03:33;5.00;;;1.70;;
2860;SDS011;1438;50.922;6.704;2023-07-28T02:06:00;3.50;;;1.70;;
2860;SDS011;1438;50.922;6.704;2023-07-28T02:08:25;2.30;;;2.10;;
2860;SDS011;1438;50.922;6.704;2023-07-28T02:10:53;3.87;;;2.53;;
2860;SDS011;1438;50.922;6.704;2023-07-28T02:13:18;6.23;;;1.60;;
2860;SDS011;1438;50.922;6.704;2023-07-28T02:15:44;3.50;;;1.37;;
2860;SDS011;1438;50.922;6.704;2023-07-28T02:18:10;2.13;;;1.93;;
2860;SDS011;1438;50.922;6.704;2023-07-28T02:20:36;3.70;;;1.93;;
2860;SDS011;1438;50.922;6.704;2023-07-28T02:23:03;4.10;;;2.07;;
2860;SDS011;1438;50.922;6.704;2023-07-28T02:25:29;3.27;;;1.90;;
2860;SDS011;1438;50.922;6.704;2023-07-28T02:27:55;2.97;;;1.57;;
2860;SDS011;1438;50.922;6.704;2023-07-28T02:30:21;4.27;;;1.93;;
2860;SDS011;1438;50.922;6.704;2023-07-28T02:32:46;6.20;;;2.10;;
2860;SDS011;1438;50.922;6.704;2023-07-28T02:35:12;2.80;;;1.67;;
2860;SDS011;1438;50.922;6.704;2023-07-28T02:37:38;2.80;;;2.07;;
2860;SDS011;1438;50.922;6.704;2023-07-28T02:40:03;6.10;;;2.10;;
2860;SDS011;1438;50.922;6.704;2023-07-28T02:42:30;2.03;;;1.73;;
2860;SDS011;1438;50.922;6.704;2023-07-28T02:44:55;2.47;;;2.27;;
2860;SDS011;1438;50.922;6.704;2023-07-28T02:47:21;3.13;;;2.10;;
2860;SDS011;1438;50.922;6.704;2023-07-28T02:49:47;2.30;;;1.93;;
2860;SDS011;1438;50.922;6.704;2023-07-28T02:52:12;3.80;;;2.23;;
2860;SDS011;1438;50.922;6.704;2023-07-28T02:54:38;2.27;;;2.00;;
2860;SDS011;1438;50.922;6.704;2023-07-28T02:57:04;2.83;;;2.10;;
2860;SDS011;1438;50.922;6.704;2023-07-28T02:59:30;10.03;;;2.07;;
2860;SDS011;1438;50.922;6.704;2023-07-28T03:01:55;5.20;;;2.20;;
2860;SDS011;1438;50.922;6.704;2023-07-28T03:04:24;3.33;;;2.00;;
2860;SDS011;1438;50.922;6.704;2023-07-28T03:06:49;3.50;;;2.47;;
2860;SDS011;1438;50.922;6.704;2023-07-28T03:09:15;2.80;;;2.60;;
2860;SDS011;1438;50.922;6.704;2023-07-28T03:11:43;4.10;;;2.40;;
2860;SDS011;1438;50.922;6.704;2023-07-28T03:14:09;3.50;;;3.20;;
2860;SDS011;1438;50.922;6.704;2023-07-28T03:16:40;3.80;;;2.87;;
2860;SDS011;1438;50.922;6.704;2023-07-28T03:19:07;5.53;;;3.03;;
2860;SDS011;1438;50.922;6.704;2023-07-28T03:21:33;7.37;;;3.53;;
2860;SDS011;1438;50.922;6.704;2023-07-28T03:24:02;3.27;;;2.90;;
2860;SDS011;1438;50.922;6.704;2023-07-28T03:26:27;5.10;;;3.30;;
2860;SDS011;1438;50.922;6.704;2023-07-28T03:28:53;13.60;;;3.27;;
2860;SDS011;1438;50.922;6.704;2023-07-28T03:31:21;4.20;;;3.20;;
2860;SDS011;1438;50.922;6.704;2023-07-28T03:33:47;3.53;;;3.23;;
2860;SDS011;1438;50.922;6.704;2023-07-28T03:36:15;5.30;;;2.60;;
2860;SDS011;1438;50.922;6.704;2023-07-28T03:38:40;4.00;;;3.60;;
2860;SDS011;1438;50.922;6.704;2023-07-28T03:41:06;4.70;;;3.50;;
2860;SDS011;1438;50.922;6.704;2023-07-28T03:43:32;6.77;;;3.00;;
2860;SDS011;1438;50.922;6.704;2023-07-28T03:45:58;7.20;;;3.60;;
2860;SDS011;1438;50.922;6.704;2023-07-28T03:48:23;4.00;;;3.43;;
2860;SDS011;1438;50.922;6.704;2023-07-28T03:50:49;5.23;;;3.47;;
2860;SDS011;1438;50.922;6.704;2023-07-28T03:53:15;9.70;;;3.30;;
2860;SDS011;1438;50.922;6.704;2023-07-28T03:55:40;10.97;;;3.70;;
2860;SDS011;1438;50.922;6.704;2023-07-28T03:58:08;5.87;;;3.73;;
2860;SDS011;1438;50.922;6.704;2023-07-28T04:00:34;3.70;;;3.37;;
2860;SDS011;1438;50.922;6.704;2023-07-28T04:03:02;4.77;;;3.73;;
2860;SDS011;1438;50.922;6.704;2023-07-28T04:05:28;4.00;;;3.70;;
2860;SDS011;1438;50.922;6.704;2023-07-28T04:07:54;4.93;;;4.37;;
2860;SDS011;1438;50.922;6.704;2023-07-28T04:10:19;5.40;;;3.80;;
2860;SDS011;1438;50.922;6.704;2023-07-28T04:12:45;6.43;;;3.03;;
2860;SDS011;1438;50.922;6.704;2023-07-28T04:15:11;4.10;;;3.10;;
2860;SDS011;1438;50.922;6.704;2023-07-28T04:17:38;6.80;;;3.90;;
2860;SDS011;1438;50.922;6.704;2023-07-28T04:20:09;4.30;;;2.80;;
2860;SDS011;1438;50.922;6.704;2023-07-28T04:22:37;4.23;;;2.93;;
2860;SDS011;1438;50.922;6.704;2023-07-28T04:25:05;3.03;;;2.80;;
2860;SDS011;1438;50.922;6.704;2023-07-28T04:27:32;4.20;;;3.40;;
2860;SDS011;1438;50.922;6.704;2023-07-28T04:29:57;6.63;;;4.10;;
2860;SDS011;1438;50.922;6.704;2023-07-28T04:32:23;3.67;;;3.27;;
2860;SDS011;1438;50.922;6.704;2023-07-28T04:34:51;2.70;;;2.40;;
2860;SDS011;1438;50.922;6.704;2023-07-28T04:37:19;5.97;;;2.90;;
2860;SDS011;1438;50.922;6.704;2023-07-28T04:39:49;3.20;;;2.90;;
2860;SDS011;1438;50.922;6.704;2023-07-28T04:42:15;2.63;;;2.40;;
2860;SDS011;1438;50.922;6.704;2023-07-28T04:44:41;8.80;;;2.63;;
2860;SDS011;1438;50.922;6.704;2023-07-28T04:47:07;5.53;;;3.03;;
2860;SDS011;1438;50.922;6.704;2023-07-28T04:49:35;4.23;;;3.30;;
2860;SDS011;1438;50.922;6.704;2023-07-28T04:52:00;4.30;;;2.87;;
2860;SDS011;1438;50.922;6.704;2023-07-28T04:54:26;8.60;;;2.33;;
2860;SDS011;1438;50.922;6.704;2023-07-28T04:56:52;2.70;;;2.20;;
2860;SDS011;1438;50.922;6.704;2023-07-28T04:59:18;2.73;;;2.50;;
2860;SDS011;1438;50.922;6.704;2023-07-28T05:01:44;2.90;;;2.37;;
2860;SDS011;1438;50.922;6.704;2023-07-28T05:04:11;2.90;;;2.70;;
2860;SDS011;1438;50.922;6.704;2023-07-28T05:06:37;1.93;;;1.80;;
2860;SDS011;1438;50.922;6.704;2023-07-28T05:09:03;2.77;;;2.07;;
2860;SDS011;1438;50.922;6.704;2023-07-28T05:11:31;5.20;;;2.23;;
2860;SDS011;1438;50.922;6.704;2023-07-28T05:13:56;1.93;;;1.77;;
2860;SDS011;1438;50.922;6.704;2023-07-28T05:16:22;4.40;;;2.13;;
2860;SDS011;1438;50.922;6.704;2023-07-28T05:18:47;2.37;;;2.03;;
2860;SDS011;1438;50.922;6.704;2023-07-28T05:21:13;1.77;;;1.37;;
2860;SDS011;1438;50.922;6.704;2023-07-28T05:23:39;1.80;;;1.70;;
2860;SDS011;1438;50.922;6.704;2023-07-28T05:26:06;1.80;;;1.70;;
2860;SDS011;1438;50.922;6.704;2023-07-28T05:28:35;2.93;;;1.50;;
2860;SDS011;1438;50.922;6.704;2023-07-28T05:31:03;1.97;;;1.50;;
2860;SDS011;1438;50.922;6.704;2023-07-28T05:33:32;1.93;;;1.77;;
2860;SDS011;1438;50.922;6.704;2023-07-28T05:36:02;1.60;;;1.43;;
2860;SDS011;1438;50.922;6.704;2023-07-28T05:38:33;6.97;;;1.17;;
2860;SDS011;1438;50.922;6.704;2023-07-28T05:41:06;1.40;;;1.30;;
2860;SDS011;1438;50.922;6.704;2023-07-28T05:43:32;1.40;;;1.30;;
2860;SDS011;1438;50.922;6.704;2023-07-28T05:45:59;3.37;;;1.40;;
2860;SDS011;1438;50.922;6.704;2023-07-28T05:48:25;2.10;;;1.40;;
2860;SDS011;1438;50.922;6.704;2023-07-28T05:50:51;3.30;;;1.30;;
2860;SDS011;1438;50.922;6.704;2023-07-28T05:53:18;2.70;;;1.50;;
2860;SDS011;1438;50.922;6.704;2023-07-28T05:55:50;3.30;;;1.33;;
2860;SDS011;1438;50.922;6.704;2023-07-28T05:58:15;3.23;;;1.63;;
2860;SDS011;1438;50.922;6.704;2023-07-28T06:00:41;1.47;;;1.37;;
2860;SDS011;1438;50.922;6.704;2023-07-28T06:03:13;2.33;;;1.13;;
2860;SDS011;1438;50.922;6.704;2023-07-28T06:05:41;1.97;;;1.60;;
2860;SDS011;1438;50.922;6.704;2023-07-28T06:08:07;1.73;;;1.20;;
2860;SDS011;1438;50.922;6.704;2023-07-28T06:10:33;1.37;;;1.27;;
2860;SDS011;1438;50.922;6.704;2023-07-28T06:13:02;1.57;;;1.37;;
2860;SDS011;1438;50.922;6.704;2023-07-28T06:15:30;2.30;;;1.67;;
2860;SDS011;1438;50.922;6.704;2023-07-28T06:17:59;1.90;;;1.50;;
2860;SDS011;1438;50.922;6.704;2023-07-28T06:20:27;3.73;;;1.90;;
2860;SDS011;1438;50.922;6.704;2023-07-28T06:22:56;3.10;;;1.70;;
2860;SDS011;1438;50.922;6.704;2023-07-28T06:25:29;2.73;;;1.20;;
2860;SDS011;1438;50.922;6.704;2023-07-28T06:27:55;2.10;;;1.90;;
2860;SDS011;1438;50.922;6.704;2023-07-28T06:30:26;4.40;;;1.93;;
2860;SDS011;1438;50.922;6.704;2023-07-28T06:32:54;3.57;;;2.17;;
2860;SDS011;1438;50.922;6.704;2023-07-28T06:35:24;5.83;;;2.00;;
2860;SDS011;1438;50.922;6.704;2023-07-28T06:37:52;8.40;;;2.77;;
2860;SDS011;1438;50.922;6.704;2023-07-28T06:40:18;2.67;;;2.47;;
2860;SDS011;1438;50.922;6.704;2023-07-28T06:42:44;2.73;;;2.20;;
2860;SDS011;1438;50.922;6.704;2023-07-28T06:45:09;4.27;;;2.10;;
2860;SDS011;1438;50.922;6.704;2023-07-28T06:47:35;3.27;;;2.90;;
2860;SDS011;1438;50.922;6.704;2023-07-28T06:50:01;5.53;;;2.73;;
2860;SDS011;1438;50.922;6.704;2023-07-28T06:52:26;3.73;;;2.37;;
2860;SDS011;1438;50.922;6.704;2023-07-28T06:54:52;8.43;;;3.30;;
2860;SDS011;1438;50.922;6.704;2023-07-28T06:57:19;3.90;;;3.10;;
2860;SDS011;1438;50.922;6.704;2023-07-28T06:59:44;2.90;;;2.53;;
2860;SDS011;1438;50.922;6.704;2023-07-28T07:02:10;7.07;;;3.10;;
2860;SDS011;1438;50.922;6.704;2023-07-28T07:04:36;2.90;;;2.70;;
2860;SDS011;1438;50.922;6.704;2023-07-28T07:07:02;3.10;;;2.90;;
2860;SDS011;1438;50.922;6.704;2023-07-28T07:09:27;3.43;;;3.13;;
2860;SDS011;1438;50.922;6.704;2023-07-28T07:11:56;7.43;;;3.80;;
2860;SDS011;1438;50.922;6.704;2023-07-28T07:14:22;6.50;;;3.00;;
2860;SDS011;1438;50.922;6.704;2023-07-28T07:16:48;3.20;;;2.90;;
2860;SDS011;1438;50.922;6.704;2023-07-28T07:19:14;4.60;;;3.37;;
2860;SDS011;1438;50.922;6.704;2023-07-28T07:21:40;3.13;;;2.73;;
2860;SDS011;1438;50.922;6.704;2023-07-28T07:24:07;4.97;;;3.20;;
2860;SDS011;1438;50.922;6.704;2023-07-28T07:26:32;4.73;;;3.10;;
2860;SDS011;1438;50.922;6.704;2023-07-28T07:28:58;4.10;;;3.37;;
2860;SDS011;1438;50.922;6.704;2023-07-28T07:31:24;4.03;;;3.10;;
2860;SDS011;1438;50.922;6.704;2023-07-28T07:33:50;4.60;;;3.30;;
2860;SDS011;1438;50.922;6.704;2023-07-28T07:36:16;4.67;;;3.33;;
2860;SDS011;1438;50.922;6.704;2023-07-28T07:38:43;5.17;;;3.03;;
2860;SDS011;1438;50.922;6.704;2023-07-28T07:41:12;3.40;;;2.47;;
2860;SDS011;1438;50.922;6.704;2023-07-28T07:43:44;3.00;;;2.67;;
2860;SDS011;1438;50.922;6.704;2023-07-28T07:46:10;3.53;;;2.50;;
2860;SDS011;1438;50.922;6.704;2023-07-28T07:48:35;3.20;;;2.73;;
2860;SDS011;1438;50.922;6.704;2023-07-28T07:51:01;5.00;;;3.03;;
2860;SDS011;1438;50.922;6.704;2023-07-28T07:53:27;3.23;;;2.93;;
2860;SDS011;1438;50.922;6.704;2023-07-28T07:55:52;2.33;;;2.10;;
2860;SDS011;1438;50.922;6.704;2023-07-28T07:58:18;3.03;;;2.77;;
2860;SDS011;1438;50.922;6.704;2023-07-28T08:00:43;2.47;;;2.27;;
2860;SDS011;1438;50.922;6.704;2023-07-28T08:03:09;2.43;;;2.00;;
2860;SDS011;1438;50.922;6.704;2023-07-28T08:05:35;2.07;;;1.97;;
2860;SDS011;1438;50.922;6.704;2023-07-28T08:08:00;2.53;;;2.10;;
2860;SDS011;1438;50.922;6.704;2023-07-28T08:10:26;2.17;;;1.97;;
2860;SDS011;1438;50.922;6.704;2023-07-28T08:12:52;2.83;;;1.97;;
2860;SDS011;1438;50.922;6.704;2023-07-28T08:15:18;3.60;;;2.47;;
2860;SDS011;1438;50.922;6.704;2023-07-28T08:17:45;2.93;;;1.90;;
2860;SDS011;1438;50.922;6.704;2023-07-28T08:20:11;2.53;;;2.33;;
2860;SDS011;1438;50.922;6.704;2023-07-28T08:22:37;1.80;;;1.70;;
2860;SDS011;1438;50.922;6.704;2023-07-28T08:25:03;1.90;;;1.70;;
2860;SDS011;1438;50.922;6.704;2023-07-28T08:27:29;2.50;;;1.90;;
2860;SDS011;1438;50.922;6.704;2023-07-28T08:29:55;1.63;;;1.43;;
2860;SDS011;1438;50.922;6.704;2023-07-28T08:32:21;3.63;;;1.80;;
2860;SDS011;1438;50.922;6.704;2023-07-28T08:34:47;2.23;;;1.27;;
2860;SDS011;1438;50.922;6.704;2023-07-28T08:37:13;2.33;;;1.40;;
2860;SDS011;1438;50.922;6.704;2023-07-28T08:39:38;1.87;;;1.37;;
2860;SDS011;1438;50.922;6.704;2023-07-28T08:42:04;3.03;;;1.60;;
2860;SDS011;1438;50.922;6.704;2023-07-28T08:44:30;1.80;;;1.30;;
2860;SDS011;1438;50.922;6.704;2023-07-28T08:46:57;1.67;;;1.57;;
2860;SDS011;1438;50.922;6.704;2023-07-28T08:49:28;1.77;;;1.20;;
2860;SDS011;1438;50.922;6.704;2023-07-28T08:51:57;3.20;;;1.20;;
2860;SDS011;1438;50.922;6.704;2023-07-28T08:54:23;4.20;;;1.00;;
2860;SDS011;1438;50.922;6.704;2023-07-28T08:56:49;1.33;;;1.10;;
2860;SDS011;1438;50.922;6.704;2023-07-28T08:59:25;2.10;;;1.20;;
2860;SDS011;1438;50.922;6.704;2023-07-28T09:01:52;1.73;;;1.20;;
2860;SDS011;1438;50.922;6.704;2023-07-28T09:04:19;1.20;;;1.00;;
2860;SDS011;1438;50.922;6.704;2023-07-28T09:06:46;1.43;;;1.30;;
2860;SDS011;1438;50.922;6.704;2023-07-28T09:09:13;1.37;;;1.10;;
2860;SDS011;1438;50.922;6.704;2023-07-28T09:11:46;2.13;;;1.37;;
2860;SDS011;1438;50.922;6.704;2023-07-28T09:14:13;1.10;;;0.83;;
2860;SDS011;1438;50.922;6.704;2023-07-28T09:16:41;2.17;;;0.90;;
2860;SDS011;1438;50.922;6.704;2023-07-28T09:19:08;1.30;;;0.97;;
2860;SDS011;1438;50.922;6.704;2023-07-28T09:21:34;2.60;;;0.90;;
2860;SDS011;1438;50.922;6.704;2023-07-28T09:24:00;1.93;;;0.97;;
2860;SDS011;1438;50.922;6.704;2023-07-28T09:26:44;1.10;;;0.83;;
2860;SDS011;1438;50.922;6.704;2023-07-28T09:29:14;2.63;;;1.07;;
2860;SDS011;1438;50.922;6.704;2023-07-28T09:31:45;1.10;;;1.00;;
2860;SDS011;1438;50.922;6.704;2023-07-28T09:34:24;1.00;;;0.90;;
2860;SDS011;1438;50.922;6.704;2023-07-28T09:36:52;1.40;;;1.30;;
2860;SDS011;1438;50.922;6.704;2023-07-28T09:39:21;2.17;;;0.80;;
2860;SDS011;1438;50.922;6.704;2023-07-28T09:41:48;0.80;;;0.70;;
2860;SDS011;1438;50.922;6.704;2023-07-28T09:44:14;2.07;;;1.00;;
2860;SDS011;1438;50.922;6.704;2023-07-28T09:46:50;1.97;;;0.87;;
2860;SDS011;1438;50.922;6.704;2023-07-28T09:49:20;2.20;;;0.90;;
2860;SDS011;1438;50.922;6.704;2023-07-28T09:51:53;1.50;;;1.07;;
2860;SDS011;1438;50.922;6.704;2023-07-28T09:54:29;1.10;;;1.00;;
2860;SDS011;1438;50.922;6.704;2023-07-28T09:56:59;1.10;;;0.97;;
2860;SDS011;1438;50.922;6.704;2023-07-28T09:59:40;1.00;;;0.93;;
2860;SDS011;1438;50.922;6.704;2023-07-28T10:02:07;1.03;;;0.93;;
2860;SDS011;1438;50.922;6.704;2023-07-28T10:04:34;1.17;;;1.07;;
2860;SDS011;1438;50.922;6.704;2023-07-28T10:07:00;0.90;;;0.80;;
2860;SDS011;1438;50.922;6.704;2023-07-28T10:09:29;2.40;;;1.00;;
2860;SDS011;1438;50.922;6.704;2023-07-28T10:11:56;3.73;;;1.10;;
2860;SDS011;1438;50.922;6.704;2023-07-28T10:17:24;1.00;;;0.90;;
2860;SDS011;1438;50.922;6.704;2023-07-28T10:20:02;1.83;;;1.10;;
2860;SDS011;1438;50.922;6.704;2023-07-28T10:22:46;1.27;;;1.10;;
2860;SDS011;1438;50.922;6.704;2023-07-28T10:25:12;3.27;;;1.20;;
2860;SDS011;1438;50.922;6.704;2023-07-28T10:27:46;1.00;;;0.77;;
2860;SDS011;1438;50.922;6.704;2023-07-28T10:30:12;1.73;;;0.83;;
2860;SDS011;1438;50.922;6.704;2023-07-28T10:32:43;3.10;;;1.10;;
2860;SDS011;1438;50.922;6.704;2023-07-28T10:37:43;0.80;;;0.70;;
2860;SDS011;1438;50.922;6.704;2023-07-28T10:40:27;3.10;;;0.90;;
2860;SDS011;1438;50.922;6.704;2023-07-28T10:42:57;0.70;;;0.60;;
2860;SDS011;1438;50.922;6.704;2023-07-28T10:45:27;0.90;;;0.77;;
2860;SDS011;1438;50.922;6.704;2023-07-28T10:47:54;0.97;;;0.87;;
2860;SDS011;1438;50.922;6.704;2023-07-28T10:50:21;0.90;;;0.80;;
2860;SDS011;1438;50.922;6.704;2023-07-28T10:52:48;1.63;;;1.00;;
2860;SDS011;1438;50.922;6.704;2023-07-28T10:55:18;1.00;;;0.90;;
2860;SDS011;1438;50.922;6.704;2023-07-28T10:57:46;0.80;;;0.67;;
2860;SDS011;1438;50.922;6.704;2023-07-28T11:00:14;0.80;;;0.80;;
2860;SDS011;1438;50.922;6.704;2023-07-28T11:02:42;1.60;;;0.70;;
2860;SDS011;1438;50.922;6.704;2023-07-28T11:05:12;3.13;;;1.23;;
2860;SDS011;1438;50.922;6.704;2023-07-28T11:07:48;1.07;;;0.90;;
2860;SDS011;1438;50.922;6.704;2023-07-28T11:10:15;1.17;;;0.70;;
2860;SDS011;1438;50.922;6.704;2023-07-28T11:12:45;0.90;;;0.80;;
2860;SDS011;1438;50.922;6.704;2023-07-28T11:15:12;0.80;;;0.70;;
2860;SDS011;1438;50.922;6.704;2023-07-28T11:17:39;1.63;;;1.00;;
2860;SDS011;1438;50.922;6.704;2023-07-28T11:20:16;1.03;;;0.80;;
2860;SDS011;1438;50.922;6.704;2023-07-28T11:22:43;2.07;;;0.90;;
2860;SDS011;1438;50.922;6.704;2023-07-28T11:25:17;1.23;;;0.90;;
2860;SDS011;1438;50.922;6.704;2023-07-28T11:27:45;1.20;;;0.87;;
2860;SDS011;1438;50.922;6.704;2023-07-28T11:30:12;0.80;;;0.60;;
2860;SDS011;1438;50.922;6.704;2023-07-28T11:32:38;1.27;;;0.80;;
2860;SDS011;1438;50.922;6.704;2023-07-28T11:35:05;0.70;;;0.60;;
2860;SDS011;1438;50.922;6.704;2023-07-28T11:37:35;0.70;;;0.60;;
2860;SDS011;1438;50.922;6.704;2023-07-28T11:40:02;0.77;;;0.70;;
2860;SDS011;1438;50.922;6.704;2023-07-28T11:42:32;0.80;;;0.80;;
2860;SDS011;1438;50.922;6.704;2023-07-28T11:44:59;2.27;;;0.90;;
2860;SDS011;1438;50.922;6.704;2023-07-28T11:47:25;0.80;;;0.70;;
2860;SDS011;1438;50.922;6.704;2023-07-28T11:49:51;0.80;;;0.80;;
2860;SDS011;1438;50.922;6.704;2023-07-28T11:52:17;1.00;;;0.90;;
2860;SDS011;1438;50.922;6.704;2023-07-28T11:54:43;1.07;;;0.97;;
2860;SDS011;1438;50.922;6.704;2023-07-28T11:57:09;0.90;;;0.80;;
2860;SDS011;1438;50.922;6.704;2023-07-28T11:59:35;1.03;;;0.87;;
2860;SDS011;1438;50.922;6.704;2023-07-28T12:02:02;1.00;;;0.90;;
2860;SDS011;1438;50.922;6.704;2023-07-28T12:04:35;0.70;;;0.67;;
2860;SDS011;1438;50.922;6.704;2023-07-28T12:07:12;3.10;;;0.80;;
2860;SDS011;1438;50.922;6.704;2023-07-28T12:12:14;0.70;;;0.60;;
2860;SDS011;1438;50.922;6.704;2023-07-28T12:14:41;0.90;;;0.73;;
2860;SDS011;1438;50.922;6.704;2023-07-28T12:17:13;1.10;;;0.80;;
2860;SDS011;1438;50.922;6.704;2023-07-28T12:19:43;0.90;;;0.63;;
2860;SDS011;1438;50.922;6.704;2023-07-28T12:22:20;0.90;;;0.90;;
2860;SDS011;1438;50.922;6.704;2023-07-28T12:24:46;0.80;;;0.80;;
2860;SDS011;1438;50.922;6.704;2023-07-28T12:27:12;0.90;;;0.70;;
2860;SDS011;1438;50.922;6.704;2023-07-28T12:29:38;1.70;;;0.80;;
2860;SDS011;1438;50.922;6.704;2023-07-28T12:32:04;1.20;;;0.60;;
2860;SDS011;1438;50.922;6.704;2023-07-28T12:34:30;0.80;;;0.73;;
2860;SDS011;1438;50.922;6.704;2023-07-28T12:36:55;1.20;;;0.93;;
2860;SDS011;1438;50.922;6.704;2023-07-28T12:39:21;2.50;;;0.93;;
2860;SDS011;1438;50.922;6.704;2023-07-28T12:41:48;0.90;;;0.80;;
2860;SDS011;1438;50.922;6.704;2023-07-28T12:44:14;0.87;;;0.67;;
2860;SDS011;1438;50.922;6.704;2023-07-28T12:46:39;1.03;;;0.80;;
2860;SDS011;1438;50.922;6.704;2023-07-28T12:49:05;2.97;;;0.90;;
2860;SDS011;1438;50.922;6.704;2023-07-28T12:51:32;1.30;;;0.80;;
2860;SDS011;1438;50.922;6.704;2023-07-28T12:53:57;1.07;;;0.90;;
2860;SDS011;1438;50.922;6.704;2023-07-28T12:56:23;0.80;;;0.80;;
2860;SDS011;1438;50.922;6.704;2023-07-28T12:58:49;1.07;;;0.70;;
2860;SDS011;1438;50.922;6.704;2023-07-28T13:01:14;1.90;;;0.90;;
2860;SDS011;1438;50.922;6.704;2023-07-28T13:03:40;0.80;;;0.70;;
2860;SDS011;1438;50.922;6.704;2023-07-28T13:06:05;1.30;;;0.90;;
2860;SDS011;1438;50.922;6.704;2023-07-28T13:08:31;0.80;;;0.80;;
2860;SDS011;1438;50.922;6.704;2023-07-28T13:10:57;1.00;;;0.80;;
2860;SDS011;1438;50.922;6.704;2023-07-28T13:13:22;1.00;;;0.80;;
2860;SDS011;1438;50.922;6.704;2023-07-28T13:15:48;1.10;;;0.70;;
2860;SDS011;1438;50.922;6.704;2023-07-28T13:18:14;0.80;;;0.70;;
2860;SDS011;1438;50.922;6.704;2023-07-28T13:20:39;0.97;;;0.70;;
2860;SDS011;1438;50.922;6.704;2023-07-28T13:23:05;1.10;;;0.80;;
2860;SDS011;1438;50.922;6.704;2023-07-28T13:25:30;0.70;;;0.70;;
2860;SDS011;1438;50.922;6.704;2023-07-28T13:27:57;0.63;;;0.60;;
2860;SDS011;1438;50.922;6.704;2023-07-28T13:30:22;1.00;;;0.70;;
2860;SDS011;1438;50.922;6.704;2023-07-28T13:32:48;0.63;;;0.57;;
2860;SDS011;1438;50.922;6.704;2023-07-28T13:35:14;0.67;;;0.60;;
2860;SDS011;1438;50.922;6.704;2023-07-28T13:37:40;0.80;;;0.60;;
2860;SDS011;1438;50.922;6.704;2023-07-28T13:40:05;0.60;;;0.47;;
2860;SDS011;1438;50.922;6.704;2023-07-28T13:42:31;0.70;;;0.50;;
2860;SDS011;1438;50.922;6.704;2023-07-28T13:44:57;0.70;;;0.50;;
2860;SDS011;1438;50.922;6.704;2023-07-28T13:47:22;0.60;;;0.40;;
2860;SDS011;1438;50.922;6.704;2023-07-28T13:49:48;0.60;;;0.50;;
2860;SDS011;1438;50.922;6.704;2023-07-28T13:52:14;1.20;;;0.50;;
2860;SDS011;1438;50.922;6.704;2023-07-28T13:54:39;1.37;;;0.73;;
2860;SDS011;1438;50.922;6.704;2023-07-28T13:57:05;1.87;;;0.60;;
2860;SDS011;1438;50.922;6.704;2023-07-28T13:59:31;0.70;;;0.50;;
2860;SDS011;1438;50.922;6.704;2023-07-28T14:01:56;1.47;;;0.67;;
2860;SDS011;1438;50.922;6.704;2023-07-28T14:04:23;1.53;;;0.50;;
2860;SDS011;1438;50.922;6.704;2023-07-28T14:06:48;1.43;;;0.40;;
2860;SDS011;1438;50.922;6.704;2023-07-28T14:09:14;0.60;;;0.43;;
2860;SDS011;1438;50.922;6.704;2023-07-28T14:11:40;0.60;;;0.50;;
2860;SDS011;1438;50.922;6.704;2023-07-28T14:14:05;0.67;;;0.50;;
2860;SDS011;1438;50.922;6.704;2023-07-28T14:16:31;0.70;;;0.50;;
2860;SDS011;1438;50.922;6.704;2023-07-28T14:18:56;0.63;;;0.50;;
2860;SDS011;1438;50.922;6.704;2023-07-28T14:21:22;0.70;;;0.40;;
2860;SDS011;1438;50.922;6.704;2023-07-28T14:23:48;0.90;;;0.50;;
2860;SDS011;1438;50.922;6.704;2023-07-28T14:26:14;0.60;;;0.43;;
2860;SDS011;1438;50.922;6.704;2023-07-28T14:28:39;0.60;;;0.40;;
2860;SDS011;1438;50.922;6.704;2023-07-28T14:31:05;0.60;;;0.50;;
2860;SDS011;1438;50.922;6.704;2023-07-28T14:33:30;0.60;;;0.50;;
2860;SDS011;1438;50.922;6.704;2023-07-28T14:35:56;2.27;;;0.70;;
2860;SDS011;1438;50.922;6.704;2023-07-28T14:38:21;0.80;;;0.60;;
2860;SDS011;1438;50.922;6.704;2023-07-28T14:40:47;0.70;;;0.60;;
2860;SDS011;1438;50.922;6.704;2023-07-28T14:43:14;0.70;;;0.60;;
2860;SDS011;1438;50.922;6.704;2023-07-28T14:45:40;1.10;;;1.00;;
2860;SDS011;1438;50.922;6.704;2023-07-28T14:48:06;0.80;;;0.70;;
2860;SDS011;1438;50.922;6.704;2023-07-28T14:50:32;0.70;;;0.70;;
2860;SDS011;1438;50.922;6.704;2023-07-28T14:52:58;0.60;;;0.60;;
2860;SDS011;1438;50.922;6.704;2023-07-28T14:55:24;1.87;;;0.80;;
2860;SDS011;1438;50.922;6.704;2023-07-28T14:57:50;2.93;;;0.70;;
2860;SDS011;1438;50.922;6.704;2023-07-28T15:00:16;0.70;;;0.50;;
2860;SDS011;1438;50.922;6.704;2023-07-28T15:02:42;1.20;;;0.80;;
2860;SDS011;1438;50.922;6.704;2023-07-28T15:05:08;0.70;;;0.60;;
2860;SDS011;1438;50.922;6.704;2023-07-28T15:07:33;0.60;;;0.50;;
2860;SDS011;1438;50.922;6.704;2023-07-28T15:10:00;0.60;;;0.50;;
2860;SDS011;1438;50.922;6.704;2023-07-28T15:12:27;1.13;;;0.60;;
2860;SDS011;1438;50.922;6.704;2023-07-28T15:14:52;1.00;;;0.60;;
2860;SDS011;1438;50.922;6.704;2023-07-28T15:17:18;0.90;;;0.60;;
2860;SDS011;1438;50.922;6.704;2023-07-28T15:19:43;0.77;;;0.57;;
2860;SDS011;1438;50.922;6.704;2023-07-28T15:22:09;1.63;;;0.60;;
2860;SDS011;1438;50.922;6.704;2023-07-28T15:24:35;0.80;;;0.70;;
2860;SDS011;1438;50.922;6.704;2023-07-28T15:27:00;2.17;;;0.73;;